Time;durP1;ratioP1;P1;durP2;ratioP2;P2;SDS_P1;SDS_P2;PMS_P1;PMS_P2;Temp;Humidity;BMP_temperature;BMP_pressure;BME280_temperature;BME280_humidity;BME280_pressure;Samples;Min_cycle;Max_cycle;Signal;HPM_P1;HPM_P2
2020/12/26 00:01:06;;;;;;;;;;;;;;;;;;2052355;28;8040;-63
2020/12/26 00:02:08;;;;;;;;;;;;;;;;;;2053940;28;7014;-65
2020/12/26 00:03:11;;;;;;;;;;;;;;;;;;2052999;28;8018;-64
2020/12/26 00:04:13;;;;;;;;;;;;;;;;;;2053076;28;7014;-66
2020/12/26 00:05:15;;;;;;;;;;;;;;;;;;2053255;28;7046;-65
2020/12/26 00:06:18;;;;;;;;;;;;;;;;;;2053602;28;7102;-64
2020/12/26 00:07:20;;;;;;;;;;;;;;;;;;2062467;28;7010;-64
2020/12/26 00:08:22;;;;;;;;;;;;;;;;;;2062744;28;7092;-65
2020/12/26 00:09:25;;;;;;;;;;;;;;;;;;2063270;28;7101;-65
2020/12/26 00:10:27;;;;;;;;;;;;;;;;;;2062961;28;7054;-65
2020/12/26 00:11:28;;;;;;;;;;;;;;;;;;2058119;28;7270;-66
2020/12/26 00:12:32;;;;;;;;;;;;;;;;;;2054747;28;7089;-64
2020/12/26 00:13:34;;;;;;;;;;;;;;;;;;2054862;28;7005;-65
2020/12/26 00:14:36;;;;;;;;;;;;;;;;;;2061986;28;7092;-64
2020/12/26 00:15:37;;;;;;;;;;;;;;;;;;2063448;28;7203;-65
2020/12/26 00:16:39;;;;;;;;;;;;;;;;;;2063491;28;7050;-65
2020/12/26 00:17:51;;;;;;;;;;;;;;;;;;2057574;28;7010;-65
2020/12/26 00:18:53;;;;;;;;;;;;;;;;;;2055687;28;7105;-66
2020/12/26 00:19:56;;;;;;;;;;;;;;;;;;2061275;28;7058;-65
2020/12/26 00:20:59;;;;;;;;;;;;;;;;;;2061826;28;7009;-64
2020/12/26 00:22:00;;;;;;;;;;;;;;;;;;2054705;28;7026;-64
2020/12/26 00:23:02;;;;;;;;;;;;;;;;;;2054707;28;7623;-65
2020/12/26 00:24:04;;;;;;;;;;;;;;;;;;2054586;28;7946;-64
2020/12/26 00:25:06;;;;;;;;;;;;;;;;;;2054362;28;7088;-65
2020/12/26 00:26:09;;;;;;;;;;;;;;;;;;2054749;28;7010;-65
2020/12/26 00:27:11;;;;;;;;;;;;;;;;;;2054548;28;8026;-65
2020/12/26 00:28:13;;;;;;;;;;;;;;;;;;2055351;28;7009;-64
2020/12/26 00:29:15;;;;;;;;;;;;;;;;;;2054725;28;7017;-64
2020/12/26 00:30:17;;;;;;;;;;;;;;;;;;2054796;28;7010;-64
2020/12/26 00:31:18;;;;;;;;;;;;;;;;;;2054950;28;7042;-64
2020/12/26 00:32:23;;;;;;;;;;;;;;;;;;2055296;28;7081;-67
2020/12/26 00:33:25;;;;;;;;;;;;;;;;;;2060162;28;7018;-64
2020/12/26 00:34:27;;;;;;;;;;;;;;;;;;2062714;28;7009;-65
2020/12/26 00:35:29;;;;;;;;;;;;;;;;;;2062637;28;8076;-64
2020/12/26 00:36:31;;;;;;;;;;;;;;;;;;2062101;28;7093;-65
2020/12/26 00:37:33;;;;;;;;;;;;;;;;;;2061980;28;7010;-65
2020/12/26 00:38:35;;;;;;;;;;;;;;;;;;2062388;28;7092;-65
2020/12/26 00:39:37;;;;;;;;;;;;;;;;;;2058213;28;7093;-63
2020/12/26 00:40:39;;;;;;;;;;;;;;;;;;2054671;28;7054;-66
2020/12/26 00:41:44;;;;;;;;;;;;;;;;;;2062120;28;7231;-63
2020/12/26 00:42:47;;;;;;;;;;;;;;;;;;2053921;28;8233;-64
2020/12/26 00:43:49;;;;;;;;;;;;;;;;;;2054000;28;7993;-65
2020/12/26 00:44:52;;;;;;;;;;;;;;;;;;2054443;28;7014;-67
2020/12/26 00:45:54;;;;;;;;;;;;;;;;;;2045478;28;7021;-65
2020/12/26 00:46:57;;;;;;;;;;;;;;;;;;2054513;28;8056;-66
2020/12/26 00:48:13;;;;;;;;;;;;;;;;;;2053936;28;7356;-65
2020/12/26 00:49:15;;;;;;;;;;;;;;;;;;2053990;28;7360;-65
2020/12/26 00:50:17;;;;;;;;;;;;;;;;;;2054826;28;7109;-65
2020/12/26 00:51:19;;;;;;;;;;;;;;;;;;2056566;28;7341;-65
2020/12/26 00:52:20;;;;;;;;;;;;;;;;;;2055228;28;7014;-64
2020/12/26 00:53:22;;;;;;;;;;;;;;;;;;2055296;28;7110;-64
2020/12/26 00:54:24;;;;;;;;;;;;;;;;;;2055890;28;7046;-65
2020/12/26 00:55:26;;;;;;;;;;;;;;;;;;2054981;28;7285;-64
2020/12/26 00:56:28;;;;;;;;;;;;;;;;;;2061528;28;7196;-64
2020/12/26 00:57:30;;;;;;;;;;;;;;;;;;2061707;28;7009;-65
2020/12/26 00:58:32;;;;;;;;;;;;;;;;;;2054624;28;7034;-65
2020/12/26 00:59:34;;;;;;;;;;;;;;;;;;2054723;28;7046;-64
2020/12/26 01:00:36;;;;;;;;;;;;;;;;;;2054150;28;7018;-66
2020/12/26 01:01:38;;;;;;;;;;;;;;;;;;2054803;28;7049;-65
2020/12/26 01:02:40;;;;;;;;;;;;;;;;;;2055708;28;7138;-67
2020/12/26 01:03:42;;;;;;;;;;;;;;;;;;2054302;28;7467;-64
2020/12/26 01:04:43;;;;;;;;;;;;;;;;;;2053898;28;8763;-63
2020/12/26 01:05:45;;;;;;;;;;;;;;;;;;2054381;28;7302;-64
2020/12/26 01:06:54;;;;;;;;;;;;;;;;;;2054796;28;7092;-68
2020/12/26 01:07:56;;;;;;;;;;;;;;;;;;2053758;28;7054;-64
2020/12/26 01:08:58;;;;;;;;;;;;;;;;;;2054676;28;7010;-65
2020/12/26 01:10:00;;;;;;;;;;;;;;;;;;2054747;28;7030;-64
2020/12/26 01:11:03;;;;;;;;;;;;;;;;;;2053138;28;7129;-64
2020/12/26 01:12:06;;;;;;;;;;;;;;;;;;2053519;28;7014;-65
2020/12/26 01:13:09;;;;;;;;;;;;;;;;;;2054919;28;7017;-65
2020/12/26 01:14:11;;;;;;;;;;;;;;;;;;2054597;28;8060;-64
2020/12/26 01:15:13;;;;;;;;;;;;;;;;;;2055242;28;7021;-64
2020/12/26 01:16:16;;;;;;;;;;;;;;;;;;2055505;28;9034;-64
2020/12/26 01:17:18;;;;;;;;;;;;;;;;;;2054480;28;7105;-64
2020/12/26 01:18:32;;;;;;;;;;;;;;;;;;2055872;28;7132;-64
2020/12/26 01:19:34;;;;;;;;;;;;;;;;;;2056733;28;8183;-65
2020/12/26 01:20:36;;;;;;;;;;;;;;;;;;2055140;28;8248;-64
2020/12/26 01:21:38;;;;;;;;;;;;;;;;;;2056752;28;7109;-66
2020/12/26 01:22:40;;;;;;;;;;;;;;;;;;2055737;28;7017;-65
2020/12/26 01:23:42;;;;;;;;;;;;;;;;;;2055984;28;7013;-64
2020/12/26 01:24:44;;;;;;;;;;;;;;;;;;2054814;28;8059;-63
2020/12/26 01:25:47;;;;;;;;;;;;;;;;;;2055313;28;7309;-66
2020/12/26 01:26:50;;;;;;;;;;;;;;;;;;2055577;28;7141;-64
2020/12/26 01:27:51;;;;;;;;;;;;;;;;;;2055561;28;7042;-65
2020/12/26 01:28:53;;;;;;;;;;;;;;;;;;2055830;28;7113;-67
2020/12/26 01:29:55;;;;;;;;;;;;;;;;;;2055720;28;7105;-65
2020/12/26 01:30:57;;;;;;;;;;;;;;;;;;2063482;28;7161;-64
2020/12/26 01:31:59;;;;;;;;;;;;;;;;;;2063508;28;7164;-62
2020/12/26 01:33:02;;;;;;;;;;;;;;;;;;2063194;28;7042;-64
2020/12/26 01:34:03;;;;;;;;;;;;;;;;;;2063091;28;7041;-64
2020/12/26 01:35:10;;;;;;;;;;;;;;;;;;2063780;28;7006;-65
2020/12/26 01:36:12;;;;;;;;;;;;;;;;;;2063268;28;7116;-64
2020/12/26 01:37:14;;;;;;;;;;;;;;;;;;2063334;28;7109;-66
2020/12/26 01:38:16;;;;;;;;;;;;;;;;;;2063740;28;7233;-65
2020/12/26 01:39:20;;;;;;;;;;;;;;;;;;2063996;28;7029;-65
2020/12/26 01:40:22;;;;;;;;;;;;;;;;;;2063507;28;7010;-65
2020/12/26 01:41:24;;;;;;;;;;;;;;;;;;2063470;28;7068;-65
2020/12/26 01:42:26;;;;;;;;;;;;;;;;;;2063185;28;7535;-64
2020/12/26 01:43:28;;;;;;;;;;;;;;;;;;2063389;28;7297;-66
2020/12/26 01:44:30;;;;;;;;;;;;;;;;;;2063672;28;7013;-66
2020/12/26 01:45:32;;;;;;;;;;;;;;;;;;2063341;28;7105;-65
2020/12/26 01:46:34;;;;;;;;;;;;;;;;;;2063565;28;7009;-67
2020/12/26 01:47:36;;;;;;;;;;;;;;;;;;2063328;28;7033;-65
2020/12/26 01:48:50;;;;;;;;;;;;;;;;;;2062191;28;7010;-66
2020/12/26 01:49:53;;;;;;;;;;;;;;;;;;2054823;28;7088;-67
2020/12/26 01:50:55;;;;;;;;;;;;;;;;;;2055142;28;7017;-66
2020/12/26 01:51:57;;;;;;;;;;;;;;;;;;2055512;28;7006;-66
2020/12/26 01:52:59;;;;;;;;;;;;;;;;;;2055257;28;7006;-67
2020/12/26 01:54:03;;;;;;;;;;;;;;;;;;2055398;28;7106;-65
2020/12/26 01:55:05;;;;;;;;;;;;;;;;;;2055269;28;7009;-64
2020/12/26 01:56:08;;;;;;;;;;;;;;;;;;2055661;28;7132;-66
2020/12/26 01:57:10;;;;;;;;;;;;;;;;;;2055331;28;8541;-63
2020/12/26 01:58:13;;;;;;;;;;;;;;;;;;2055074;28;7006;-65
2020/12/26 01:59:15;;;;;;;;;;;;;;;;;;2055301;28;7010;-67
2020/12/26 02:00:18;;;;;;;;;;;;;;;;;;2055068;28;7010;-65
2020/12/26 02:01:34;;;;;;;;;;;;;;;;;;2054982;28;7113;-63
2020/12/26 02:02:36;;;;;;;;;;;;;;;;;;2055309;28;7092;-65
2020/12/26 02:03:40;;;;;;;;;;;;;;;;;;2055060;28;7043;-65
2020/12/26 02:04:41;;;;;;;;;;;;;;;;;;2055212;28;7058;-64
2020/12/26 02:05:43;;;;;;;;;;;;;;;;;;2055291;28;8036;-65
2020/12/26 02:06:52;;;;;;;;;;;;;;;;;;2054182;28;7062;-65
2020/12/26 02:07:54;;;;;;;;;;;;;;;;;;2054556;28;7581;-64
2020/12/26 02:08:58;;;;;;;;;;;;;;;;;;2054325;28;7054;-65
2020/12/26 02:10:01;;;;;;;;;;;;;;;;;;2054464;28;7037;-64
2020/12/26 02:11:06;;;;;;;;;;;;;;;;;;2054458;28;7113;-66
2020/12/26 02:12:08;;;;;;;;;;;;;;;;;;2054383;28;8554;-65
2020/12/26 02:13:10;;;;;;;;;;;;;;;;;;2054187;28;7562;-64
2020/12/26 02:14:12;;;;;;;;;;;;;;;;;;2054490;28;7133;-65
2020/12/26 02:15:14;;;;;;;;;;;;;;;;;;2054339;28;7017;-65
2020/12/26 02:16:17;;;;;;;;;;;;;;;;;;2055403;28;7013;-65
2020/12/26 02:17:25;;;;;;;;;;;;;;;;;;2055937;28;7325;-64
2020/12/26 02:18:27;;;;;;;;;;;;;;;;;;2055437;28;7117;-65
2020/12/26 02:19:29;;;;;;;;;;;;;;;;;;2055345;28;7298;-63
2020/12/26 02:20:31;;;;;;;;;;;;;;;;;;2062064;28;7013;-64
2020/12/26 02:21:33;;;;;;;;;;;;;;;;;;2057703;28;7013;-65
2020/12/26 02:22:35;;;;;;;;;;;;;;;;;;2054923;28;7289;-65
2020/12/26 02:23:44;;;;;;;;;;;;;;;;;;2054895;28;8027;-65
2020/12/26 02:24:46;;;;;;;;;;;;;;;;;;2055190;28;7014;-64
2020/12/26 02:25:47;;;;;;;;;;;;;;;;;;2055043;28;7058;-66
2020/12/26 02:26:49;;;;;;;;;;;;;;;;;;2054192;28;7014;-67
2020/12/26 02:27:51;;;;;;;;;;;;;;;;;;2055282;28;7302;-65
2020/12/26 02:28:53;;;;;;;;;;;;;;;;;;2055055;28;7038;-65
2020/12/26 02:29:55;;;;;;;;;;;;;;;;;;2055073;28;7014;-63
2020/12/26 02:30:57;;;;;;;;;;;;;;;;;;2055000;28;7305;-64
2020/12/26 02:31:59;;;;;;;;;;;;;;;;;;2054925;28;7009;-64
2020/12/26 02:33:01;;;;;;;;;;;;;;;;;;2054913;28;7031;-65
2020/12/26 02:34:04;;;;;;;;;;;;;;;;;;2055776;28;7009;-65
2020/12/26 02:35:06;;;;;;;;;;;;;;;;;;2055417;28;7030;-65
2020/12/26 02:36:08;;;;;;;;;;;;;;;;;;2055147;28;7097;-65
2020/12/26 02:37:11;;;;;;;;;;;;;;;;;;2055265;28;7029;-65
2020/12/26 02:38:18;;;;;;;;;;;;;;;;;;2054771;28;7010;-65
2020/12/26 02:39:20;;;;;;;;;;;;;;;;;;2055365;28;7053;-66
2020/12/26 02:40:22;;;;;;;;;;;;;;;;;;2053641;28;7121;-64
2020/12/26 02:41:24;;;;;;;;;;;;;;;;;;2055336;28;7013;-65
2020/12/26 02:42:26;;;;;;;;;;;;;;;;;;2054863;28;7134;-65
2020/12/26 02:43:28;;;;;;;;;;;;;;;;;;2054774;28;8064;-67
2020/12/26 02:44:30;;;;;;;;;;;;;;;;;;2054252;28;8088;-64
2020/12/26 02:45:32;;;;;;;;;;;;;;;;;;2054638;28;7142;-66
2020/12/26 02:46:33;;;;;;;;;;;;;;;;;;2054617;28;7085;-62
2020/12/26 02:47:35;;;;;;;;;;;;;;;;;;2054762;28;7085;-65
2020/12/26 02:48:37;;;;;;;;;;;;;;;;;;2055233;28;7314;-66
2020/12/26 02:49:39;;;;;;;;;;;;;;;;;;2055419;28;7018;-66
2020/12/26 02:50:42;;;;;;;;;;;;;;;;;;2054473;28;8024;-64
2020/12/26 02:51:44;;;;;;;;;;;;;;;;;;2054864;28;7341;-68
2020/12/26 02:52:47;;;;;;;;;;;;;;;;;;2054568;28;7018;-66
2020/12/26 02:53:49;;;;;;;;;;;;;;;;;;2054538;28;8536;-65
2020/12/26 02:54:51;;;;;;;;;;;;;;;;;;2054581;28;8100;-66
2020/12/26 02:55:53;;;;;;;;;;;;;;;;;;2055121;28;7046;-64
2020/12/26 02:56:55;;;;;;;;;;;;;;;;;;2055041;28;7009;-65
2020/12/26 02:57:57;;;;;;;;;;;;;;;;;;2053709;28;8100;-65
2020/12/26 02:58:58;;;;;;;;;;;;;;;;;;2059637;28;7021;-65
2020/12/26 03:00:00;;;;;;;;;;;;;;;;;;2062166;28;7010;-65
2020/12/26 03:01:03;;;;;;;;;;;;;;;;;;2054542;28;7109;-65
2020/12/26 03:02:05;;;;;;;;;;;;;;;;;;2054919;28;7277;-65
2020/12/26 03:03:08;;;;;;;;;;;;;;;;;;2054785;28;7113;-65
2020/12/26 03:04:14;;;;;;;;;;;;;;;;;;2055296;28;7006;-67
2020/12/26 03:05:16;;;;;;;;;;;;;;;;;;2055043;28;7058;-64
2020/12/26 03:06:18;;;;;;;;;;;;;;;;;;2053721;28;7809;-66
2020/12/26 03:07:20;;;;;;;;;;;;;;;;;;2054002;28;7006;-64
2020/12/26 03:08:22;;;;;;;;;;;;;;;;;;2054853;28;7029;-65
2020/12/26 03:09:24;;;;;;;;;;;;;;;;;;2054249;28;8056;-66
2020/12/26 03:10:26;;;;;;;;;;;;;;;;;;2059434;28;7026;-63
2020/12/26 03:11:28;;;;;;;;;;;;;;;;;;2057181;28;7230;-64
2020/12/26 03:12:30;;;;;;;;;;;;;;;;;;2054234;28;7109;-64
2020/12/26 03:13:32;;;;;;;;;;;;;;;;;;2053972;28;7147;-65
2020/12/26 03:14:34;;;;;;;;;;;;;;;;;;2054148;28;7010;-62
2020/12/26 03:15:36;;;;;;;;;;;;;;;;;;2055837;28;7089;-65
2020/12/26 03:16:39;;;;;;;;;;;;;;;;;;2062394;28;7046;-65
2020/12/26 03:17:41;;;;;;;;;;;;;;;;;;2054357;28;8063;-66
2020/12/26 03:18:44;;;;;;;;;;;;;;;;;;2054550;28;7471;-65
2020/12/26 03:19:48;;;;;;;;;;;;;;;;;;2055137;28;8033;-65
2020/12/26 03:20:50;;;;;;;;;;;;;;;;;;2053666;28;7013;-63
2020/12/26 03:21:52;;;;;;;;;;;;;;;;;;2054740;28;7018;-64
2020/12/26 03:22:54;;;;;;;;;;;;;;;;;;2054396;28;7310;-64
2020/12/26 03:23:56;;;;;;;;;;;;;;;;;;2054424;28;8041;-65
2020/12/26 03:24:58;;;;;;;;;;;;;;;;;;2054186;28;7117;-65
2020/12/26 03:26:00;;;;;;;;;;;;;;;;;;2054323;28;7143;-65
2020/12/26 03:27:03;;;;;;;;;;;;;;;;;;2054581;28;7085;-66
2020/12/26 03:28:05;;;;;;;;;;;;;;;;;;2054709;28;7046;-65
2020/12/26 03:29:08;;;;;;;;;;;;;;;;;;2054491;28;7006;-64
2020/12/26 03:30:10;;;;;;;;;;;;;;;;;;2054910;28;7009;-63
2020/12/26 03:31:12;;;;;;;;;;;;;;;;;;2062943;28;7025;-62
2020/12/26 03:32:14;;;;;;;;;;;;;;;;;;2062578;28;8123;-67
2020/12/26 03:33:16;;;;;;;;;;;;;;;;;;2062693;28;7085;-65
2020/12/26 03:34:18;;;;;;;;;;;;;;;;;;2062969;28;7088;-65
2020/12/26 03:35:20;;;;;;;;;;;;;;;;;;2062373;28;7134;-64
2020/12/26 03:36:22;;;;;;;;;;;;;;;;;;2062464;28;7033;-63
2020/12/26 03:37:24;;;;;;;;;;;;;;;;;;2061808;28;7172;-64
2020/12/26 03:38:26;;;;;;;;;;;;;;;;;;2061845;28;7084;-66
2020/12/26 03:39:28;;;;;;;;;;;;;;;;;;2062595;28;7009;-65
2020/12/26 03:40:30;;;;;;;;;;;;;;;;;;2063585;28;7088;-63
2020/12/26 03:41:32;;;;;;;;;;;;;;;;;;2062583;28;7038;-64
2020/12/26 03:42:34;;;;;;;;;;;;;;;;;;2057098;28;8041;-66
2020/12/26 03:43:36;;;;;;;;;;;;;;;;;;2056925;28;7026;-66
2020/12/26 03:44:38;;;;;;;;;;;;;;;;;;2057210;28;7010;-66
2020/12/26 03:45:40;;;;;;;;;;;;;;;;;;2056925;28;7324;-65
2020/12/26 03:46:42;;;;;;;;;;;;;;;;;;2057516;28;7109;-64
2020/12/26 03:47:44;;;;;;;;;;;;;;;;;;2057868;28;7014;-64
2020/12/26 03:48:46;;;;;;;;;;;;;;;;;;2057401;28;7121;-64
2020/12/26 03:50:04;;;;;;;;;;;;;;;;;;2057431;28;7006;-65
2020/12/26 03:51:06;;;;;;;;;;;;;;;;;;2057593;28;7010;-64
2020/12/26 03:52:08;;;;;;;;;;;;;;;;;;2057546;28;7093;-65
2020/12/26 03:53:11;;;;;;;;;;;;;;;;;;2057564;28;7014;-66
2020/12/26 03:54:13;;;;;;;;;;;;;;;;;;2056707;28;7157;-64
2020/12/26 03:55:15;;;;;;;;;;;;;;;;;;2056782;28;7026;-64
2020/12/26 03:56:17;;;;;;;;;;;;;;;;;;2057211;28;7073;-63
2020/12/26 03:57:19;;;;;;;;;;;;;;;;;;2057001;28;7101;-65
2020/12/26 03:58:21;;;;;;;;;;;;;;;;;;2056808;28;7017;-65
2020/12/26 03:59:24;;;;;;;;;;;;;;;;;;2056801;28;7013;-65
2020/12/26 04:00:26;;;;;;;;;;;;;;;;;;2056096;28;7097;-63
2020/12/26 04:01:28;;;;;;;;;;;;;;;;;;2056833;28;7010;-63
2020/12/26 04:02:30;;;;;;;;;;;;;;;;;;2064578;28;7156;-64
2020/12/26 04:03:32;;;;;;;;;;;;;;;;;;2056138;28;7026;-65
2020/12/26 04:04:35;;;;;;;;;;;;;;;;;;2057317;28;7368;-66
2020/12/26 04:05:36;;;;;;;;;;;;;;;;;;2060839;28;7442;-64
2020/12/26 04:06:39;;;;;;;;;;;;;;;;;;2064527;28;7096;-65
2020/12/26 04:07:41;;;;;;;;;;;;;;;;;;2064761;28;7045;-64
2020/12/26 04:08:42;;;;;;;;;;;;;;;;;;2064415;28;8048;-66
2020/12/26 04:09:45;;;;;;;;;;;;;;;;;;2064750;28;7097;-66
2020/12/26 04:10:48;;;;;;;;;;;;;;;;;;2064978;28;7365;-66
2020/12/26 04:11:49;;;;;;;;;;;;;;;;;;2058635;28;7108;-62
2020/12/26 04:12:51;;;;;;;;;;;;;;;;;;2057064;28;7009;-66
2020/12/26 04:13:53;;;;;;;;;;;;;;;;;;2064740;28;8068;-67
2020/12/26 04:14:55;;;;;;;;;;;;;;;;;;2064410;28;7093;-64
2020/12/26 04:15:57;;;;;;;;;;;;;;;;;;2064585;28;7010;-64
2020/12/26 04:16:59;;;;;;;;;;;;;;;;;;2064930;28;7328;-65
2020/12/26 04:18:01;;;;;;;;;;;;;;;;;;2064929;28;7009;-66
2020/12/26 04:19:04;;;;;;;;;;;;;;;;;;2065118;28;7108;-65
2020/12/26 04:20:25;;;;;;;;;;;;;;;;;;2065195;28;7062;-65
2020/12/26 04:21:27;;;;;;;;;;;;;;;;;;2063143;28;8032;-66
2020/12/26 04:22:29;;;;;;;;;;;;;;;;;;2064500;28;7482;-66
2020/12/26 04:23:31;;;;;;;;;;;;;;;;;;2065322;28;7006;-66
2020/12/26 04:24:33;;;;;;;;;;;;;;;;;;2065276;28;7097;-63
2020/12/26 04:25:35;;;;;;;;;;;;;;;;;;2065040;28;7088;-65
2020/12/26 04:26:37;;;;;;;;;;;;;;;;;;2064197;28;7096;-63
2020/12/26 04:27:39;;;;;;;;;;;;;;;;;;2064288;28;7046;-63
2020/12/26 04:28:41;;;;;;;;;;;;;;;;;;2064831;28;7029;-64
2020/12/26 04:29:43;;;;;;;;;;;;;;;;;;2065165;28;8027;-64
2020/12/26 04:30:45;;;;;;;;;;;;;;;;;;2064692;28;7093;-64
2020/12/26 04:31:48;;;;;;;;;;;;;;;;;;2065090;28;7329;-65
2020/12/26 04:32:51;;;;;;;;;;;;;;;;;;2060020;28;7042;-64
2020/12/26 04:33:52;;;;;;;;;;;;;;;;;;2056831;28;7092;-66
2020/12/26 04:34:54;;;;;;;;;;;;;;;;;;2056802;28;7089;-65
2020/12/26 04:35:57;;;;;;;;;;;;;;;;;;2057226;28;7447;-65
2020/12/26 04:36:59;;;;;;;;;;;;;;;;;;2056953;28;7046;-66
2020/12/26 04:38:01;;;;;;;;;;;;;;;;;;2057485;28;7141;-65
2020/12/26 04:39:03;;;;;;;;;;;;;;;;;;2057507;28;7089;-67
2020/12/26 04:40:06;;;;;;;;;;;;;;;;;;2056501;28;7088;-65
2020/12/26 04:41:08;;;;;;;;;;;;;;;;;;2057672;28;7009;-64
2020/12/26 04:42:11;;;;;;;;;;;;;;;;;;2057122;28;7006;-66
2020/12/26 04:43:13;;;;;;;;;;;;;;;;;;2056108;28;7046;-64
2020/12/26 04:44:16;;;;;;;;;;;;;;;;;;2057068;28;7113;-65
2020/12/26 04:45:18;;;;;;;;;;;;;;;;;;2056856;28;7113;-62
2020/12/26 04:46:23;;;;;;;;;;;;;;;;;;2056241;28;7952;-64
2020/12/26 04:47:39;;;;;;;;;;;;;;;;;;2056188;28;7050;-66
2020/12/26 04:48:49;;;;;;;;;;;;;;;;;;2056685;28;7186;-64
2020/12/26 04:49:57;;;;;;;;;;;;;;;;;;2056687;28;7006;-63
2020/12/26 04:51:03;;;;;;;;;;;;;;;;;;2057209;28;7013;-67
2020/12/26 04:52:09;;;;;;;;;;;;;;;;;;2055709;28;8044;-65
2020/12/26 04:53:14;;;;;;;;;;;;;;;;;;2055502;28;7096;-62
2020/12/26 04:54:16;;;;;;;;;;;;;;;;;;2055248;28;7009;-65
2020/12/26 04:55:26;;;;;;;;;;;;;;;;;;2055669;28;8036;-65
2020/12/26 04:56:37;;;;;;;;;;;;;;;;;;2063038;28;7042;-66
2020/12/26 04:57:39;;;;;;;;;;;;;;;;;;2062841;28;7089;-65
2020/12/26 04:58:44;;;;;;;;;;;;;;;;;;2063745;28;7021;-64
2020/12/26 04:59:46;;;;;;;;;;;;;;;;;;2063278;28;7035;-65
2020/12/26 05:00:48;;;;;;;;;;;;;;;;;;2063364;28;7093;-67
2020/12/26 05:01:51;;;;;;;;;;;;;;;;;;2063247;28;8320;-64
2020/12/26 05:02:56;;;;;;;;;;;;;;;;;;2063222;28;7113;-65
2020/12/26 05:04:00;;;;;;;;;;;;;;;;;;2063305;28;7009;-64
2020/12/26 05:05:04;;;;;;;;;;;;;;;;;;2063232;28;8002;-63
2020/12/26 05:06:06;;;;;;;;;;;;;;;;;;2063144;28;7275;-66
2020/12/26 05:07:08;;;;;;;;;;;;;;;;;;2063348;28;7050;-63
2020/12/26 05:08:11;;;;;;;;;;;;;;;;;;2063387;28;7026;-63
2020/12/26 05:09:15;;;;;;;;;;;;;;;;;;2063645;28;7033;-64
2020/12/26 05:10:17;;;;;;;;;;;;;;;;;;2063225;28;8048;-66
2020/12/26 05:11:20;;;;;;;;;;;;;;;;;;2059551;28;8028;-65
2020/12/26 05:12:22;;;;;;;;;;;;;;;;;;2055478;28;7113;-66
2020/12/26 05:13:25;;;;;;;;;;;;;;;;;;2055477;28;7155;-67
2020/12/26 05:14:29;;;;;;;;;;;;;;;;;;2055221;28;7013;-64
2020/12/26 05:15:31;;;;;;;;;;;;;;;;;;2055063;28;7009;-64
2020/12/26 05:16:33;;;;;;;;;;;;;;;;;;2055419;28;7109;-66
2020/12/26 05:17:35;;;;;;;;;;;;;;;;;;2055365;28;7129;-67
2020/12/26 05:18:38;;;;;;;;;;;;;;;;;;2055914;28;8100;-66
2020/12/26 05:19:43;;;;;;;;;;;;;;;;;;2055905;28;7293;-64
2020/12/26 05:20:57;;;;;;;;;;;;;;;;;;2055916;28;7014;-66
2020/12/26 05:21:59;;;;;;;;;;;;;;;;;;2063564;28;7053;-63
2020/12/26 05:23:07;;;;;;;;;;;;;;;;;;2063766;28;7301;-64
2020/12/26 05:24:11;;;;;;;;;;;;;;;;;;2054877;28;7006;-67
2020/12/26 05:25:13;;;;;;;;;;;;;;;;;;2055379;28;7110;-66
2020/12/26 05:26:15;;;;;;;;;;;;;;;;;;2055404;28;7145;-64
2020/12/26 05:27:17;;;;;;;;;;;;;;;;;;2055289;28;7096;-65
2020/12/26 05:28:25;;;;;;;;;;;;;;;;;;2055694;28;7109;-65
2020/12/26 05:29:29;;;;;;;;;;;;;;;;;;2063515;28;8473;-65
2020/12/26 05:30:35;;;;;;;;;;;;;;;;;;2063787;28;7006;-63
2020/12/26 05:31:57;;;;;;;;;;;;;;;;;;2064174;28;7036;-66
2020/12/26 05:33:18;;;;;;;;;;;;;;;;;;2062856;28;7109;-66
2020/12/26 05:34:21;;;;;;;;;;;;;;;;;;2058261;28;7022;-65
2020/12/26 05:35:34;;;;;;;;;;;;;;;;;;2055118;28;8062;-64
2020/12/26 05:36:36;;;;;;;;;;;;;;;;;;2055262;28;7046;-64
2020/12/26 05:37:38;;;;;;;;;;;;;;;;;;2055018;28;7149;-63
2020/12/26 05:38:39;;;;;;;;;;;;;;;;;;2055526;28;7088;-65
2020/12/26 05:39:42;;;;;;;;;;;;;;;;;;2055552;28;7093;-66
2020/12/26 05:40:53;;;;;;;;;;;;;;;;;;2055890;28;7017;-65
2020/12/26 05:41:55;;;;;;;;;;;;;;;;;;2055552;28;7066;-66
2020/12/26 05:42:58;;;;;;;;;;;;;;;;;;2055205;28;7093;-66
2020/12/26 05:44:02;;;;;;;;;;;;;;;;;;2055302;28;7152;-64
2020/12/26 05:45:05;;;;;;;;;;;;;;;;;;2055612;28;7010;-66
2020/12/26 05:46:08;;;;;;;;;;;;;;;;;;2056122;28;7121;-64
2020/12/26 05:47:10;;;;;;;;;;;;;;;;;;2055780;28;8116;-64
2020/12/26 05:48:14;;;;;;;;;;;;;;;;;;2055037;28;7013;-64
2020/12/26 05:49:26;;;;;;;;;;;;;;;;;;2055354;28;7187;-66
2020/12/26 05:50:28;;;;;;;;;;;;;;;;;;2055701;28;7305;-62
2020/12/26 05:51:30;;;;;;;;;;;;;;;;;;2055648;28;7096;-65
2020/12/26 05:52:32;;;;;;;;;;;;;;;;;;2055469;28;7207;-63
2020/12/26 05:53:35;;;;;;;;;;;;;;;;;;2055120;28;7013;-65
2020/12/26 05:54:38;;;;;;;;;;;;;;;;;;2055218;28;7010;-64
2020/12/26 05:55:43;;;;;;;;;;;;;;;;;;2055054;28;7009;-66
2020/12/26 05:56:46;;;;;;;;;;;;;;;;;;2054871;28;7050;-64
2020/12/26 05:57:52;;;;;;;;;;;;;;;;;;2055684;28;7318;-65
2020/12/26 05:58:54;;;;;;;;;;;;;;;;;;2055283;28;7050;-66
2020/12/26 05:59:55;;;;;;;;;;;;;;;;;;2055009;28;7029;-63
2020/12/26 06:01:00;;;;;;;;;;;;;;;;;;2055465;28;7112;-65
2020/12/26 06:02:36;;;;;;;;;;;;;;;;;;2054348;28;7171;-64
2020/12/26 06:03:38;;;;;;;;;;;;;;;;;;2038421;29;7101;-64
2020/12/26 06:04:43;;;;;;;;;;;;;;;;;;2050268;28;7010;-66
2020/12/26 06:05:55;;;;;;;;;;;;;;;;;;2063297;28;7201;-64
2020/12/26 06:06:58;;;;;;;;;;;;;;;;;;2063019;28;7089;-67
2020/12/26 06:08:00;;;;;;;;;;;;;;;;;;2062898;28;7093;-65
2020/12/26 06:09:02;;;;;;;;;;;;;;;;;;2062380;28;7093;-65
2020/12/26 06:10:08;;;;;;;;;;;;;;;;;;2062933;28;7046;-66
2020/12/26 06:11:10;;;;;;;;;;;;;;;;;;2061623;28;7341;-68
2020/12/26 06:12:16;;;;;;;;;;;;;;;;;;2054770;28;7106;-64
2020/12/26 06:13:19;;;;;;;;;;;;;;;;;;2054557;28;7009;-65
2020/12/26 06:14:21;;;;;;;;;;;;;;;;;;2054664;28;7135;-65
2020/12/26 06:15:25;;;;;;;;;;;;;;;;;;2055008;28;7046;-64
2020/12/26 06:16:49;;;;;;;;;;;;;;;;;;2055535;28;8064;-67
2020/12/26 06:17:55;;;;;;;;;;;;;;;;;;2054900;28;7002;-64
2020/12/26 06:18:58;;;;;;;;;;;;;;;;;;2054952;28;7113;-64
2020/12/26 06:20:04;;;;;;;;;;;;;;;;;;2054702;28;7046;-65
2020/12/26 06:21:08;;;;;;;;;;;;;;;;;;2055829;28;7058;-64
2020/12/26 06:22:10;;;;;;;;;;;;;;;;;;2055418;28;7085;-64
2020/12/26 06:23:14;;;;;;;;;;;;;;;;;;2063013;28;7136;-65
2020/12/26 06:24:17;;;;;;;;;;;;;;;;;;2063241;28;7089;-66
2020/12/26 06:25:20;;;;;;;;;;;;;;;;;;2062979;28;9650;-64
2020/12/26 06:26:28;;;;;;;;;;;;;;;;;;2063495;28;7009;-63
2020/12/26 06:27:36;;;;;;;;;;;;;;;;;;2054715;28;7046;-64
2020/12/26 06:28:38;;;;;;;;;;;;;;;;;;2055139;28;7109;-63
2020/12/26 06:29:44;;;;;;;;;;;;;;;;;;2055426;28;7010;-65
2020/12/26 06:30:47;;;;;;;;;;;;;;;;;;2055262;28;7030;-65
2020/12/26 06:31:50;;;;;;;;;;;;;;;;;;2054843;28;7009;-65
2020/12/26 06:32:52;;;;;;;;;;;;;;;;;;2062925;28;7009;-66
2020/12/26 06:33:55;;;;;;;;;;;;;;;;;;2062608;28;7522;-66
2020/12/26 06:34:57;;;;;;;;;;;;;;;;;;2063052;28;7187;-63
2020/12/26 06:35:59;;;;;;;;;;;;;;;;;;2062631;28;7058;-65
2020/12/26 06:37:01;;;;;;;;;;;;;;;;;;2062828;28;7009;-65
2020/12/26 06:38:19;;;;;;;;;;;;;;;;;;2063022;28;7089;-63
2020/12/26 06:39:30;;;;;;;;;;;;;;;;;;2054784;28;7109;-64
2020/12/26 06:40:32;;;;;;;;;;;;;;;;;;2054877;28;8065;-64
2020/12/26 06:41:34;;;;;;;;;;;;;;;;;;2055300;28;7138;-63
2020/12/26 06:42:39;;;;;;;;;;;;;;;;;;2063241;28;7313;-67
2020/12/26 06:43:41;;;;;;;;;;;;;;;;;;2054565;28;7009;-67
2020/12/26 06:44:45;;;;;;;;;;;;;;;;;;2054266;28;8095;-65
2020/12/26 06:45:47;;;;;;;;;;;;;;;;;;2054426;28;7376;-62
2020/12/26 06:46:49;;;;;;;;;;;;;;;;;;2054641;28;8396;-65
2020/12/26 06:47:51;;;;;;;;;;;;;;;;;;2054814;28;7014;-66
2020/12/26 06:48:57;;;;;;;;;;;;;;;;;;2054579;28;7013;-64
2020/12/26 06:50:19;;;;;;;;;;;;;;;;;;2055544;28;7294;-66
2020/12/26 06:51:24;;;;;;;;;;;;;;;;;;2054657;28;7085;-67
2020/12/26 06:52:38;;;;;;;;;;;;;;;;;;2057080;28;7088;-65
2020/12/26 06:53:41;;;;;;;;;;;;;;;;;;2054803;28;7038;-64
2020/12/26 06:54:45;;;;;;;;;;;;;;;;;;2054454;28;8048;-66
2020/12/26 06:55:50;;;;;;;;;;;;;;;;;;2055031;28;8040;-65
2020/12/26 06:56:52;;;;;;;;;;;;;;;;;;2054808;28;9084;-63
2020/12/26 06:57:53;;;;;;;;;;;;;;;;;;2054759;28;7014;-64
2020/12/26 06:58:55;;;;;;;;;;;;;;;;;;2054860;28;7113;-64
2020/12/26 06:59:57;;;;;;;;;;;;;;;;;;2054516;28;8040;-65
2020/12/26 07:00:59;;;;;;;;;;;;;;;;;;2055270;28;7093;-67
2020/12/26 07:02:06;;;;;;;;;;;;;;;;;;2055311;28;7018;-64
2020/12/26 07:03:31;;;;;;;;;;;;;;;;;;2054647;28;7010;-64
2020/12/26 07:04:37;;;;;;;;;;;;;;;;;;2054820;28;7046;-66
2020/12/26 07:05:39;;;;;;;;;;;;;;;;;;2054497;28;7405;-65
2020/12/26 07:06:45;;;;;;;;;;;;;;;;;;2054736;28;7018;-65
2020/12/26 07:07:47;;;;;;;;;;;;;;;;;;2054070;28;7097;-64
2020/12/26 07:08:52;;;;;;;;;;;;;;;;;;2054132;28;8100;-64
2020/12/26 07:09:54;;;;;;;;;;;;;;;;;;2054092;28;7113;-62
2020/12/26 07:10:57;;;;;;;;;;;;;;;;;;2054160;28;7103;-64
2020/12/26 07:11:59;;;;;;;;;;;;;;;;;;2052517;28;7046;-63
2020/12/26 07:13:01;;;;;;;;;;;;;;;;;;2054098;28;7089;-66
2020/12/26 07:14:03;;;;;;;;;;;;;;;;;;2054156;28;7101;-66
2020/12/26 07:15:05;;;;;;;;;;;;;;;;;;2054330;28;7025;-65
2020/12/26 07:16:27;;;;;;;;;;;;;;;;;;2053890;28;8023;-66
2020/12/26 07:17:29;;;;;;;;;;;;;;;;;;2053964;28;7093;-65
2020/12/26 07:18:31;;;;;;;;;;;;;;;;;;2054756;28;7005;-64
2020/12/26 07:19:38;;;;;;;;;;;;;;;;;;2054782;28;7050;-66
2020/12/26 07:20:47;;;;;;;;;;;;;;;;;;2054591;28;7121;-65
2020/12/26 07:21:50;;;;;;;;;;;;;;;;;;2061910;28;7033;-64